Terminal Aerodrome Forecast
Issued by NWS Sterling, VA

Current Version | Previous Version | Text Only | Print | Product List | Glossary Off
Versions: 1 2 3 4 5 6 7 8 9 10 11 12 13 14 15

000
FTUS41 KLWX 262300
TAFMRB
TAF
KMRB 262336Z 2700/2724 15006KT P6SM BKN050 BKN090
      TEMPO 2702/2704 4SM TSRA BKN030CB
     FM270400 00000KT P6SM BKN090
     FM270600 00000KT P6SM VCTS SCT050CB BKN090
     FM270900 VRB03KT P6SM BKN050 BKN090
     FM271500 23005KT 5SM -SHRA VCTS SCT050CB BKN090
     FM271800 25009KT 5SM SHRA VCTS BKN050CB=

USA.gov is the U.S. government's official web portal to all federal, state and local government web resources and services.